Pledger, Texas
Current Conditions -  °F | °C
As of 5:15 AM on Monday 20 Oct 2014 (Local Time) from KARM Reporting Station
Clear Clear  
Wind Chill: 64°   Ceiling: Unl
Heat Index: 64°   Visibility: 10mi
Dew Point: 62°   Wind: 5mph
Humidity: 93%   Direction: 60°ENE
Pressure: 29.99"   Gusts: NA
Location:  29.18°N, 95.91°W
Report Text: KARM 201015Z AUTO 06004KT 10SM CLR 18/17 A2999 RMK AO2 T01800168
Loading
Personal Weather Stations






























Interactive Weather Map New forecast layout! Learn more

10-Day Weather Forecast

Advertisements
Track Severe Weather on mobile